Time;durP1;ratioP1;P1;durP2;ratioP2;P2;SDS_P1;SDS_P2;PMS_P1;PMS_P2;Temp;Humidity;BMP_temperature;BMP_pressure;BME280_temperature;BME280_humidity;BME280_pressure;Samples;Min_cycle;Max_cycle;Signal;HPM_P1;HPM_P2
2023/05/27 00:03:08;;;;;;;;;;;15.80;36.50;;;14.82;36.93;102455.16;12253423;19;19923;-85
2023/05/27 00:07:10;;;;;;;;;;;15.70;36.60;;;14.81;36.83;102457.84;12253397;19;19984;-85
2023/05/27 00:11:12;;;;;;;;;;;15.70;36.60;;;14.67;37.01;102450.56;12254462;19;19944;-85
2023/05/27 00:15:14;;;;;;;;;;;15.60;36.70;;;14.71;37.06;102467.91;12253408;19;19947;-85
2023/05/27 00:19:17;;;;;;;;;;;15.50;36.60;;;14.60;37.04;102454.38;12254373;19;19936;-85
2023/05/27 00:23:18;;;;;;;;;;;15.50;36.70;;;14.25;37.10;102411.22;12250673;19;19958;-85
2023/05/27 00:27:20;;;;;;;;;;;15.40;36.70;;;14.48;37.17;102455.75;12246954;19;19914;-85
2023/05/27 00:31:21;;;;;;;;;;;15.30;36.70;;;14.07;37.11;102397.97;12253808;19;19922;-85
2023/05/27 00:35:23;;;;;;;;;;;15.30;36.70;;;14.29;37.17;102449.59;12260443;19;20337;-84
2023/05/27 00:39:25;;;;;;;;;;;15.20;36.80;;;14.31;37.33;102460.88;12261226;19;20644;-85
2023/05/27 00:43:27;;;;;;;;;;;15.10;36.80;;;14.17;37.24;102449.19;12259819;19;19919;-84
2023/05/27 00:47:31;;;;;;;;;;;15.10;36.80;;;14.14;37.40;102456.34;12260247;19;19927;-85
2023/05/27 00:51:33;;;;;;;;;;;15.10;36.80;;;14.05;37.37;102444.47;12263847;19;19919;-85
2023/05/27 00:55:35;;;;;;;;;;;15.00;36.90;;;13.99;37.43;102435.97;12255936;19;19946;-85
2023/05/27 00:59:36;;;;;;;;;;;15.00;36.90;;;13.91;37.42;102433.69;12260939;19;19918;-85
2023/05/27 01:03:41;;;;;;;;;;;15.00;37.00;;;13.99;37.46;102460.50;12256512;19;19979;-85
2023/05/27 01:08:07;;;;;;;;;;;14.90;36.90;;;13.97;37.50;102464.94;12260033;19;19919;-85
2023/05/27 01:12:41;;;;;;;;;;;14.80;36.90;;;13.84;37.65;102446.22;12260061;19;19923;-85
2023/05/27 01:16:44;;;;;;;;;;;14.80;36.90;;;13.85;37.79;102447.94;12257563;19;19927;-85
2023/05/27 01:20:48;;;;;;;;;;;14.80;37.00;;;13.58;37.60;102410.50;12260176;19;19915;-84
2023/05/27 01:24:49;;;;;;;;;;;14.70;37.00;;;13.70;37.60;102432.81;12256607;19;19919;-85
2023/05/27 01:28:51;;;;;;;;;;;14.70;37.30;;;13.54;37.73;102422.06;12260246;19;19922;-85
2023/05/27 01:32:58;;;;;;;;;;;14.60;37.00;;;13.62;37.69;102442.75;12260828;19;19918;-85
2023/05/27 01:37:07;;;;;;;;;;;14.60;37.00;;;13.46;37.77;102435.50;12256217;19;20322;-84
2023/05/27 01:41:09;;;;;;;;;;;14.50;37.00;;;13.36;37.88;102434.16;12261392;19;19927;-85
2023/05/27 01:45:12;;;;;;;;;;;14.40;37.10;;;13.36;37.74;102449.03;12257725;19;20153;-85
2023/05/27 01:49:15;;;;;;;;;;;14.30;37.10;;;13.17;37.82;102425.25;12261913;19;20253;-84
2023/05/27 01:53:17;;;;;;;;;;;14.20;37.00;;;12.83;37.97;102374.97;12260860;19;19926;-85
2023/05/27 01:57:19;;;;;;;;;;;14.10;37.10;;;12.79;37.83;102383.00;12255244;19;20335;-85
2023/05/27 02:01:22;;;;;;;;;;;14.10;37.20;;;13.02;38.06;102437.22;12260470;19;19915;-85
2023/05/27 02:05:26;;;;;;;;;;;14.00;37.20;;;12.79;38.07;102415.31;12255180;19;19919;-85
2023/05/27 02:09:27;;;;;;;;;;;13.90;37.20;;;12.77;38.02;102426.75;12260691;19;20250;-85
2023/05/27 02:13:29;;;;;;;;;;;13.80;37.30;;;12.68;38.05;102433.19;12253808;19;20000;-85
2023/05/27 02:17:31;;;;;;;;;;;13.70;37.30;;;12.44;38.09;102410.50;12258608;19;19918;-84
2023/05/27 02:21:33;;;;;;;;;;;13.60;37.40;;;12.50;38.13;102428.63;12256608;19;19911;-85
2023/05/27 02:25:35;;;;;;;;;;;13.60;37.40;;;12.40;38.30;102433.34;12260074;19;19926;-85
2023/05/27 02:29:36;;;;;;;;;;;13.40;37.50;;;12.32;38.34;102431.00;12259019;19;19911;-84
2023/05/27 02:33:39;;;;;;;;;;;13.30;37.40;;;12.26;38.16;102425.97;12258235;19;20527;-85
2023/05/27 02:37:40;;;;;;;;;;;13.30;37.40;;;12.29;38.23;102436.34;12258759;19;19931;-85
2023/05/27 02:41:42;;;;;;;;;;;13.20;37.50;;;12.25;38.29;102439.97;12259691;19;19911;-85
2023/05/27 02:45:45;;;;;;;;;;;13.20;37.50;;;11.99;38.37;102405.97;12255404;19;19934;-84
2023/05/27 02:49:47;;;;;;;;;;;13.20;37.50;;;12.12;38.30;102447.41;12258906;19;19922;-85
2023/05/27 02:53:50;;;;;;;;;;;13.10;37.60;;;12.10;38.31;102456.22;12254665;19;19930;-85
2023/05/27 02:57:52;;;;;;;;;;;13.00;37.40;;;11.98;38.46;102449.63;12258653;19;19907;-85
2023/05/27 03:01:53;;;;;;;;;;;13.00;37.50;;;11.68;38.44;102407.81;12254835;19;19942;-85
2023/05/27 03:05:56;;;;;;;;;;;12.90;37.40;;;11.66;38.38;102414.00;12251993;19;20265;-84
2023/05/27 03:09:58;;;;;;;;;;;12.90;37.50;;;11.73;38.48;102434.69;12253431;19;19982;-85
2023/05/27 03:14:01;;;;;;;;;;;12.90;37.60;;;11.87;38.55;102449.97;12256732;19;19911;-85
2023/05/27 03:18:03;;;;;;;;;;;12.80;37.60;;;11.86;38.64;102444.81;12255838;19;19930;-85
2023/05/27 03:22:06;;;;;;;;;;;12.80;37.60;;;11.81;38.64;102442.28;12254243;19;19933;-85
2023/05/27 03:26:08;;;;;;;;;;;12.80;37.90;;;11.74;38.67;102436.38;12254686;19;19948;-85
2023/05/27 03:30:11;;;;;;;;;;;12.80;37.60;;;11.68;38.50;102443.59;12256453;19;19919;-85
2023/05/27 03:34:19;;;;;;;;;;;12.70;37.70;;;11.54;38.62;102437.97;12255484;19;19922;-85
2023/05/27 03:38:21;;;;;;;;;;;12.70;37.70;;;11.59;38.69;102454.38;12256113;19;19915;-85
2023/05/27 03:42:22;;;;;;;;;;;12.70;37.70;;;11.43;38.62;102427.84;12255197;19;19958;-85
2023/05/27 03:46:24;;;;;;;;;;;12.60;37.80;;;11.48;38.76;102437.25;12251258;19;19923;-85
2023/05/27 03:50:27;;;;;;;;;;;12.60;37.80;;;11.39;38.75;102432.28;12255749;19;19927;-85
2023/05/27 03:54:29;;;;;;;;;;;12.50;37.80;;;11.47;38.90;102442.50;12253351;19;19914;-85
2023/05/27 03:58:30;;;;;;;;;;;12.60;37.90;;;11.45;38.91;102442.56;12256651;19;19922;-85
2023/05/27 04:02:32;;;;;;;;;;;12.60;37.80;;;11.50;38.99;102455.50;12251007;19;20293;-85
2023/05/27 04:06:34;;;;;;;;;;;12.60;38.00;;;11.42;38.92;102457.50;12250994;19;19919;-85
2023/05/27 04:10:35;;;;;;;;;;;12.50;37.90;;;11.43;38.91;102473.16;12254730;19;20353;-84
2023/05/27 04:14:37;;;;;;;;;;;12.50;38.00;;;11.16;39.02;102419.94;12251194;19;19919;-85
2023/05/27 04:18:41;;;;;;;;;;;12.50;37.90;;;11.31;38.92;102463.03;12254101;19;19915;-85
2023/05/27 04:22:43;;;;;;;;;;;12.50;38.20;;;11.26;39.13;102455.38;12253586;19;19926;-85
2023/05/27 04:26:45;;;;;;;;;;;12.50;38.40;;;11.30;39.29;102464.81;12250352;19;19939;-84
2023/05/27 04:30:48;;;;;;;;;;;12.50;38.50;;;11.36;39.20;102473.38;12252021;19;19986;-85
2023/05/27 04:34:58;;;;;;;;;;;12.60;38.50;;;11.35;39.34;102463.84;12251434;19;20372;-85
2023/05/27 04:39:01;;;;;;;;;;;12.50;38.60;;;11.32;39.25;102456.94;12256366;19;19915;-85
2023/05/27 04:43:05;;;;;;;;;;;12.50;38.60;;;11.32;39.33;102450.84;12249335;19;19994;-85
2023/05/27 04:47:07;;;;;;;;;;;12.50;38.70;;;11.30;39.42;102448.28;12251666;19;19921;-85
2023/05/27 04:51:15;;;;;;;;;;;12.60;38.80;;;11.38;39.37;102454.13;12254084;19;19911;-85
2023/05/27 04:55:17;;;;;;;;;;;12.60;38.90;;;11.30;39.44;102424.72;12252789;19;19952;-85
2023/05/27 04:59:21;;;;;;;;;;;12.70;39.10;;;11.71;39.65;102470.50;12253582;19;20346;-85
2023/05/27 05:03:36;;;;;;;;;;;12.80;39.20;;;11.81;39.56;102467.63;12250911;19;19958;-84
2023/05/27 05:07:41;;;;;;;;;;;12.90;39.30;;;11.81;39.89;102450.16;12252908;19;19926;-85
2023/05/27 05:11:43;;;;;;;;;;;13.00;39.40;;;12.03;39.78;102460.81;12253078;19;20372;-85
2023/05/27 05:15:45;;;;;;;;;;;13.20;39.50;;;12.11;39.74;102456.16;12250929;19;19925;-85
2023/05/27 05:19:48;;;;;;;;;;;13.30;39.80;;;12.28;39.92;102465.19;12259525;19;19915;-84
2023/05/27 05:23:50;;;;;;;;;;;13.50;39.80;;;12.38;40.07;102456.97;12261949;19;19931;-85
2023/05/27 05:27:53;;;;;;;;;;;13.60;39.70;;;12.31;39.89;102425.78;12264490;19;20556;-84
2023/05/27 05:31:56;;;;;;;;;;;13.80;39.70;;;12.61;40.13;102450.94;12262234;19;19927;-85
2023/05/27 05:35:57;;;;;;;;;;;13.90;40.00;;;12.61;40.24;102434.34;12260047;19;19918;-84
2023/05/27 05:40:12;;;;;;;;;;;14.10;40.30;;;13.02;40.27;102463.44;12260386;19;19948;-83
2023/05/27 05:44:23;;;;;;;;;;;14.30;40.10;;;13.14;40.32;102447.22;12253494;19;19939;-84
2023/05/27 05:48:28;;;;;;;;;;;14.50;40.30;;;13.39;40.64;102457.63;12266228;19;19911;-85
2023/05/27 05:52:31;;;;;;;;;;;14.70;40.20;;;13.63;40.57;102461.06;12261920;19;19944;-85
2023/05/27 05:56:33;;;;;;;;;;;14.90;40.40;;;13.85;40.53;102462.81;12259595;19;19925;-84
2023/05/27 06:00:35;;;;;;;;;;;15.20;40.30;;;14.11;40.68;102464.38;12253975;19;20334;-83
2023/05/27 06:05:04;;;;;;;;;;;15.50;40.60;;;14.35;40.81;102446.69;12247915;19;20310;-84
2023/05/27 06:09:06;;;;;;;;;;;15.80;41.10;;;14.58;40.84;102445.72;12253847;19;20334;-84
2023/05/27 06:13:10;;;;;;;;;;;16.10;40.80;;;14.82;40.93;102433.22;12254395;19;19919;-84
2023/05/27 06:17:13;;;;;;;;;;;16.30;40.60;;;15.09;40.80;102438.16;12249626;19;20001;-84
2023/05/27 06:21:14;;;;;;;;;;;16.60;40.30;;;15.35;40.58;102452.72;12251727;19;19914;-84
2023/05/27 06:25:34;;;;;;;;;;;16.90;40.40;;;15.61;40.83;102464.66;12251935;19;19914;-84
2023/05/27 06:29:44;;;;;;;;;;;17.20;40.40;;;15.77;40.95;102472.66;12251365;19;19940;-84
2023/05/27 06:33:47;;;;;;;;;;;17.30;39.50;;;15.98;40.87;102478.66;12250360;19;19926;-83
2023/05/27 06:37:48;;;;;;;;;;;17.50;39.30;;;16.04;40.82;102473.06;12251394;19;19926;-84
2023/05/27 06:41:51;;;;;;;;;;;17.60;40.00;;;15.97;40.51;102448.81;12245895;19;19988;-85
2023/05/27 06:46:13;;;;;;;;;;;17.70;39.60;;;16.23;40.68;102476.50;12249052;19;19911;-85
2023/05/27 06:50:32;;;;;;;;;;;17.80;39.00;;;16.33;40.51;102471.59;12250596;19;19991;-84
2023/05/27 06:54:33;;;;;;;;;;;17.90;39.30;;;16.45;40.40;102478.03;12249786;19;19918;-85
2023/05/27 06:58:55;;;;;;;;;;;18.00;39.00;;;16.61;40.71;102484.22;12251204;19;19930;-83
2023/05/27 07:02:57;;;;;;;;;;;18.10;38.30;;;16.69;40.50;102489.94;12246941;19;19929;-84
2023/05/27 07:06:58;;;;;;;;;;;18.20;38.20;;;16.75;40.54;102480.84;12246411;19;20343;-84
2023/05/27 07:11:00;;;;;;;;;;;18.20;38.30;;;16.86;40.39;102477.66;12250601;19;19936;-85
2023/05/27 07:15:02;;;;;;;;;;;18.30;38.30;;;17.00;40.33;102477.78;12247662;19;19926;-84
2023/05/27 07:19:05;;;;;;;;;;;18.40;38.20;;;17.09;40.38;102463.22;12250146;19;20333;-85
2023/05/27 07:23:12;;;;;;;;;;;18.50;38.00;;;17.21;40.26;102468.69;12248490;19;19933;-84
2023/05/27 07:27:16;;;;;;;;;;;18.60;38.00;;;17.38;40.27;102462.44;12248809;19;19914;-85
2023/05/27 07:31:27;;;;;;;;;;;18.80;38.00;;;17.57;40.16;102470.19;12251836;19;19911;-84
2023/05/27 07:35:33;;;;;;;;;;;18.90;37.80;;;17.74;40.45;102465.72;12248735;19;19922;-85
2023/05/27 07:39:35;;;;;;;;;;;19.10;37.50;;;17.88;40.32;102460.53;12249959;19;20329;-85
2023/05/27 07:43:37;;;;;;;;;;;19.30;37.70;;;18.09;40.32;102475.16;12249560;19;19926;-87
2023/05/27 07:47:39;;;;;;;;;;;19.50;37.10;;;18.25;40.15;102458.34;12249325;19;19952;-85
2023/05/27 07:51:41;;;;;;;;;;;19.60;37.50;;;18.21;40.38;102409.25;12249184;19;19927;-85
2023/05/27 07:55:45;;;;;;;;;;;19.80;37.40;;;18.60;40.29;102445.63;12242286;19;19998;-85
2023/05/27 07:59:48;;;;;;;;;;;20.00;36.60;;;18.82;39.99;102450.47;12250564;19;19923;-86
2023/05/27 08:03:53;;;;;;;;;;;20.20;35.50;;;18.92;39.63;102434.84;12243261;19;20347;-86
2023/05/27 08:08:15;;;;;;;;;;;20.40;36.30;;;19.05;40.02;102433.13;12249279;19;19963;-86
2023/05/27 08:12:35;;;;;;;;;;;20.50;36.40;;;19.17;39.98;102418.25;12249715;19;20254;-86
2023/05/27 08:17:12;;;;;;;;;;;20.70;36.30;;;19.37;39.66;102431.06;12243639;19;20272;-85
2023/05/27 08:21:32;;;;;;;;;;;20.70;36.00;;;19.44;39.65;102419.13;12243673;19;19929;-85
2023/05/27 08:25:45;;;;;;;;;;;20.90;34.50;;;19.29;38.99;102384.84;12242522;19;19930;-85
2023/05/27 08:30:13;;;;;;;;;;;20.90;36.30;;;19.46;39.45;102405.75;12243247;19;19926;-85
2023/05/27 08:34:38;;;;;;;;;;;21.00;35.40;;;19.64;39.42;102407.19;12243626;19;19914;-86
2023/05/27 08:38:40;;;;;;;;;;;21.10;35.90;;;19.83;38.79;102406.84;12244157;19;19918;-85
2023/05/27 08:42:54;;;;;;;;;;;21.20;35.50;;;19.98;38.89;102406.75;12242549;19;19915;-86
2023/05/27 08:46:58;;;;;;;;;;;21.30;35.70;;;20.12;39.04;102398.72;12239936;19;19915;-85
2023/05/27 08:51:01;;;;;;;;;;;21.50;35.00;;;20.28;39.12;102391.38;12235141;19;19935;-86
2023/05/27 08:55:03;;;;;;;;;;;21.60;34.90;;;20.37;38.92;102379.25;12251035;19;19983;-86
2023/05/27 08:59:05;;;;;;;;;;;21.80;35.50;;;20.40;38.80;102364.94;12254718;19;20292;-85
2023/05/27 09:03:06;;;;;;;;;;;21.90;33.60;;;20.56;38.35;102365.56;12251326;19;19942;-86
2023/05/27 09:07:09;;;;;;;;;;;22.00;35.10;;;20.71;38.65;102376.88;12251708;19;19927;-86
2023/05/27 09:11:20;;;;;;;;;;;22.00;34.50;;;20.73;38.44;102364.34;12255204;19;20359;-86
2023/05/27 09:15:23;;;;;;;;;;;22.10;33.90;;;20.90;38.20;102369.31;12252028;19;19919;-86
2023/05/27 09:19:24;;;;;;;;;;;22.20;34.60;;;21.08;38.35;102380.38;12253873;19;19923;-86
2023/05/27 09:23:25;;;;;;;;;;;22.40;34.60;;;21.13;38.41;102356.13;12253477;19;19994;-88
2023/05/27 09:27:28;;;;;;;;;;;22.50;34.80;;;21.32;38.64;102367.09;12255392;19;19918;-86
2023/05/27 09:31:30;;;;;;;;;;;22.70;35.10;;;21.46;38.15;102368.75;12256604;19;19918;-86
2023/05/27 09:35:37;;;;;;;;;;;22.70;35.50;;;21.56;38.28;102372.41;12254838;19;19940;-86
2023/05/27 09:39:39;;;;;;;;;;;22.90;34.80;;;21.62;38.49;102366.63;12256210;19;19923;-86
2023/05/27 09:43:41;;;;;;;;;;;23.00;34.90;;;21.57;38.32;102339.53;12250182;19;19934;-86
2023/05/27 09:47:51;;;;;;;;;;;23.10;34.80;;;21.80;38.17;102355.56;12245906;19;20295;-86
2023/05/27 09:51:53;;;;;;;;;;;23.10;33.40;;;21.78;38.15;102330.88;12252520;19;19933;-87
2023/05/27 09:55:56;;;;;;;;;;;23.30;34.10;;;22.12;38.03;102349.56;12250124;19;19919;-86
2023/05/27 09:59:59;;;;;;;;;;;23.40;33.50;;;22.26;37.89;102352.00;12247786;19;19919;-86
2023/05/27 10:04:02;;;;;;;;;;;23.50;32.90;;;22.31;37.79;102331.19;12249379;19;19915;-86
2023/05/27 10:08:03;;;;;;;;;;;23.60;34.00;;;22.49;37.93;102343.03;12252528;19;20341;-86
2023/05/27 10:12:05;;;;;;;;;;;23.70;32.70;;;22.53;37.74;102331.16;12254828;19;20254;-87
2023/05/27 10:16:18;;;;;;;;;;;23.90;32.90;;;22.72;37.55;102337.66;12250468;19;19919;-86
2023/05/27 10:20:37;;;;;;;;;;;24.00;30.80;;;22.73;36.89;102340.19;12254319;19;19939;-87
2023/05/27 10:24:39;;;;;;;;;;;24.00;31.80;;;22.67;37.09;102334.53;12251034;19;19915;-86
2023/05/27 10:28:41;;;;;;;;;;;24.00;31.10;;;22.68;37.14;102331.75;12251373;19;19948;-82
2023/05/27 10:32:49;;;;;;;;;;;24.10;32.10;;;22.85;36.72;102337.50;12255744;19;19939;-82
2023/05/27 10:37:00;;;;;;;;;;;24.10;30.90;;;22.90;36.76;102329.97;12249941;19;19926;-82
2023/05/27 10:41:03;;;;;;;;;;;24.10;32.50;;;22.89;36.56;102315.81;12256416;19;19911;-83
2023/05/27 10:45:07;;;;;;;;;;;24.20;32.60;;;23.06;36.48;102321.59;12252244;19;19934;-83
2023/05/27 10:49:23;;;;;;;;;;;24.20;32.50;;;23.17;36.64;102316.22;12254944;19;19971;-83
2023/05/27 10:53:26;;;;;;;;;;;24.30;29.30;;;23.02;36.59;102272.19;12255377;19;19911;-84
2023/05/27 10:57:30;;;;;;;;;;;24.40;32.20;;;23.32;36.63;102314.09;12251588;19;19923;-83
2023/05/27 11:01:33;;;;;;;;;;;24.50;31.80;;;23.36;36.43;102304.88;12251528;19;19954;-83
2023/05/27 11:05:34;;;;;;;;;;;24.60;32.40;;;23.41;36.39;102298.16;12252224;19;19910;-84
2023/05/27 11:09:55;;;;;;;;;;;24.60;32.50;;;23.56;36.24;102295.16;12250789;19;20330;-84
2023/05/27 11:13:56;;;;;;;;;;;24.70;31.40;;;23.55;36.09;102277.47;12255120;19;19908;-85
2023/05/27 11:18:04;;;;;;;;;;;24.70;32.10;;;23.58;35.77;102291.38;12252668;19;19945;-85
2023/05/27 11:22:10;;;;;;;;;;;24.70;31.50;;;23.42;35.79;102251.84;12255118;19;19932;-85
2023/05/27 11:26:22;;;;;;;;;;;24.80;32.60;;;23.75;36.15;102283.78;12253879;19;19915;-84
2023/05/27 11:30:24;;;;;;;;;;;24.90;32.40;;;23.84;35.63;102273.19;12257622;19;19934;-84
2023/05/27 11:34:27;;;;;;;;;;;24.90;30.10;;;23.87;35.45;102263.19;12256637;19;19958;-85
2023/05/27 11:38:29;;;;;;;;;;;25.00;32.20;;;23.94;35.88;102261.69;12254072;19;20239;-85
2023/05/27 11:42:30;;;;;;;;;;;25.00;32.40;;;24.00;35.48;102267.31;12255353;19;19910;-85
2023/05/27 11:46:42;;;;;;;;;;;25.10;33.00;;;24.09;35.45;102249.66;12251572;19;19923;-84
2023/05/27 11:50:44;;;;;;;;;;;25.20;32.80;;;24.09;35.32;102228.31;12253425;19;19982;-85
2023/05/27 11:54:51;;;;;;;;;;;25.30;32.10;;;24.01;35.30;102215.63;12250526;19;19923;-85
2023/05/27 11:58:52;;;;;;;;;;;25.30;32.50;;;24.16;35.31;102239.28;12254253;19;19923;-85
2023/05/27 12:02:54;;;;;;;;;;;25.30;31.10;;;23.97;35.03;102187.53;12251760;19;19911;-85
2023/05/27 12:06:57;;;;;;;;;;;25.40;32.50;;;24.15;35.14;102218.91;12250897;19;19918;-84
2023/05/27 12:11:01;;;;;;;;;;;25.40;32.50;;;24.26;34.86;102226.78;12254449;19;19915;-85
2023/05/27 12:15:03;;;;;;;;;;;25.40;33.10;;;24.31;35.12;102215.72;12253822;19;19918;-85
2023/05/27 12:19:04;;;;;;;;;;;25.40;32.70;;;24.36;34.84;102224.13;12253270;19;19930;-84
2023/05/27 12:23:06;;;;;;;;;;;25.50;32.00;;;24.39;34.95;102208.69;12253129;19;19919;-84
2023/05/27 12:27:08;;;;;;;;;;;25.50;31.30;;;24.39;35.01;102199.84;12254990;19;19931;-85
2023/05/27 12:31:09;;;;;;;;;;;25.50;28.30;;;24.37;34.50;102207.13;12270044;19;20343;-85
2023/05/27 12:35:10;;;;;;;;;;;25.50;29.80;;;24.34;34.50;102199.41;12266579;19;19919;-85
2023/05/27 12:39:12;;;;;;;;;;;25.50;28.80;;;24.29;34.19;102192.66;12268461;19;20264;-84
2023/05/27 12:43:15;;;;;;;;;;;25.40;31.40;;;24.24;34.54;102168.19;12265557;19;19918;-85
2023/05/27 12:47:16;;;;;;;;;;;25.40;29.90;;;24.36;34.10;102176.06;12258145;19;19926;-85
2023/05/27 12:51:18;;;;;;;;;;;25.40;31.20;;;24.45;34.35;102178.78;12266216;19;19927;-85
2023/05/27 12:55:24;;;;;;;;;;;25.50;31.20;;;24.46;34.28;102171.59;12261070;19;19907;-84
2023/05/27 12:59:26;;;;;;;;;;;25.50;30.00;;;24.55;34.29;102173.44;12264949;19;19922;-84
2023/05/27 13:03:27;;;;;;;;;;;25.60;31.60;;;24.47;33.99;102144.78;12264936;19;19911;-85
2023/05/27 13:07:29;;;;;;;;;;;25.60;31.10;;;24.54;34.14;102146.88;12264773;19;19961;-84
2023/05/27 13:11:30;;;;;;;;;;;25.60;30.50;;;24.52;34.04;102149.69;12263926;19;19914;-85
2023/05/27 13:15:32;;;;;;;;;;;25.60;29.50;;;24.35;33.95;102121.81;12263768;19;19922;-84
2023/05/27 13:19:34;;;;;;;;;;;25.60;29.50;;;24.49;33.84;102156.16;12265067;19;19926;-85
2023/05/27 13:23:36;;;;;;;;;;;25.50;28.90;;;24.51;33.47;102148.00;12263620;19;19954;-86
2023/05/27 13:27:38;;;;;;;;;;;25.50;29.90;;;24.54;33.60;102133.50;12263611;19;19917;-85
2023/05/27 13:31:40;;;;;;;;;;;25.60;31.40;;;24.63;33.35;102130.84;12263239;19;19939;-85
2023/05/27 13:35:42;;;;;;;;;;;25.60;29.80;;;24.69;33.19;102135.59;12260510;19;19944;-84
2023/05/27 13:39:44;;;;;;;;;;;25.70;28.50;;;24.65;33.32;102134.19;12257607;19;19915;-83
2023/05/27 13:43:46;;;;;;;;;;;25.70;30.80;;;24.70;33.65;102131.09;12252619;19;19925;-84
2023/05/27 13:47:47;;;;;;;;;;;25.70;30.50;;;24.76;33.03;102122.50;12261030;19;19914;-84
2023/05/27 13:51:49;;;;;;;;;;;25.70;30.00;;;24.68;33.13;102115.22;12260257;19;19919;-84
2023/05/27 13:55:51;;;;;;;;;;;25.70;28.70;;;24.71;32.85;102120.28;12256510;19;19918;-84
2023/05/27 13:59:52;;;;;;;;;;;25.70;29.20;;;24.62;32.97;102104.25;12258220;19;19919;-84
2023/05/27 14:03:54;;;;;;;;;;;25.70;29.90;;;24.71;33.04;102106.94;12253916;19;20330;-84
2023/05/27 14:07:55;;;;;;;;;;;25.70;31.00;;;24.70;33.00;102089.19;12255013;19;19923;-83
2023/05/27 14:11:57;;;;;;;;;;;25.70;31.30;;;24.86;32.62;102098.44;12254615;19;19922;-83
2023/05/27 14:15:59;;;;;;;;;;;25.80;30.70;;;24.84;32.55;102084.38;12254222;19;19932;-83
2023/05/27 14:20:00;;;;;;;;;;;25.80;29.40;;;24.85;32.85;102078.91;12254155;19;19927;-83
2023/05/27 14:24:02;;;;;;;;;;;25.80;30.20;;;24.81;32.52;102063.28;12247532;19;19927;-83
2023/05/27 14:28:06;;;;;;;;;;;25.90;31.00;;;24.98;32.76;102075.03;12257169;19;19911;-83
2023/05/27 14:32:07;;;;;;;;;;;25.90;30.70;;;25.03;32.48;102068.28;12255842;19;19929;-83
2023/05/27 14:36:09;;;;;;;;;;;25.90;30.20;;;25.01;32.57;102056.06;12253154;19;20354;-83
2023/05/27 14:40:11;;;;;;;;;;;26.00;31.20;;;25.09;32.59;102062.34;12257279;19;20395;-83
2023/05/27 14:44:12;;;;;;;;;;;26.00;30.20;;;25.15;32.55;102061.78;12250492;19;19950;-83
2023/05/27 14:48:14;;;;;;;;;;;26.10;30.00;;;25.14;32.19;102060.09;12253511;19;19934;-83
2023/05/27 14:52:15;;;;;;;;;;;26.10;30.40;;;25.20;32.25;102063.19;12255201;19;19919;-83
2023/05/27 14:56:17;;;;;;;;;;;26.10;28.00;;;25.22;32.22;102061.19;12253156;19;19915;-84
2023/05/27 15:00:18;;;;;;;;;;;26.10;28.60;;;25.13;32.49;102034.31;12253902;19;20351;-83
2023/05/27 15:04:20;;;;;;;;;;;26.10;30.10;;;25.23;32.04;102052.19;12252058;19;19918;-83
2023/05/27 15:08:21;;;;;;;;;;;26.10;29.70;;;25.12;32.09;102024.63;12255286;19;19919;-84
2023/05/27 15:12:22;;;;;;;;;;;26.10;30.80;;;25.22;32.24;102035.31;12254587;19;20330;-83
2023/05/27 15:16:24;;;;;;;;;;;26.10;30.90;;;25.31;32.21;102041.59;12250605;19;19940;-84
2023/05/27 15:20:26;;;;;;;;;;;26.20;30.20;;;25.30;31.96;102022.06;12250949;19;20357;-84
2023/05/27 15:24:28;;;;;;;;;;;26.20;31.10;;;25.42;32.22;102024.50;12253339;19;19919;-83
2023/05/27 15:28:29;;;;;;;;;;;26.30;31.20;;;25.38;32.04;102024.81;12251655;19;19922;-84
2023/05/27 15:32:31;;;;;;;;;;;26.30;31.10;;;25.40;32.12;102011.28;12254453;19;19939;-83
2023/05/27 15:36:34;;;;;;;;;;;26.50;31.40;;;25.37;32.01;102008.91;12248813;19;20288;-84
2023/05/27 15:40:40;;;;;;;;;;;26.30;29.80;;;25.40;31.97;102016.63;12253218;19;19914;-84
2023/05/27 15:44:41;;;;;;;;;;;26.30;30.70;;;25.34;32.23;102007.38;12249924;19;19919;-84
2023/05/27 15:48:42;;;;;;;;;;;26.30;29.90;;;25.31;31.81;101993.47;12252738;19;19926;-84
2023/05/27 15:52:44;;;;;;;;;;;26.30;30.80;;;25.37;31.84;102014.25;12252273;19;20524;-83
2023/05/27 15:56:45;;;;;;;;;;;26.30;31.50;;;25.31;32.05;102002.31;12253610;19;19927;-84
2023/05/27 16:00:48;;;;;;;;;;;26.20;30.30;;;25.32;32.07;101997.81;12252786;19;19919;-84
2023/05/27 16:04:49;;;;;;;;;;;26.20;30.40;;;25.32;31.71;101995.97;12248358;19;19919;-84
2023/05/27 16:08:51;;;;;;;;;;;26.20;30.60;;;25.28;31.99;101989.25;12253339;19;19926;-84
2023/05/27 16:12:52;;;;;;;;;;;26.10;30.40;;;25.24;31.58;101993.22;12252520;19;19915;-84
2023/05/27 16:16:54;;;;;;;;;;;26.10;30.80;;;25.19;31.54;101982.13;12250071;19;20360;-84
2023/05/27 16:20:55;;;;;;;;;;;26.10;31.10;;;25.17;31.71;101992.16;12249882;19;19919;-83
2023/05/27 16:24:57;;;;;;;;;;;26.00;30.80;;;25.07;31.93;101973.44;12245411;19;19932;-83
2023/05/27 16:28:58;;;;;;;;;;;26.00;30.70;;;24.97;31.46;101980.66;12249166;19;19907;-84
2023/05/27 16:32:59;;;;;;;;;;;25.90;29.80;;;24.88;31.50;101978.88;12251526;19;19919;-84
2023/05/27 16:37:01;;;;;;;;;;;25.80;28.70;;;24.64;31.42;101963.38;12248753;19;19923;-84
2023/05/27 16:41:06;;;;;;;;;;;25.60;29.50;;;24.65;31.37;101967.72;12247047;19;20274;-84
2023/05/27 16:45:08;;;;;;;;;;;25.60;30.70;;;24.64;31.47;101968.72;12248498;19;19918;-84
2023/05/27 16:49:09;;;;;;;;;;;25.50;30.80;;;24.63;31.69;101975.91;12248988;19;20434;-84
2023/05/27 16:53:11;;;;;;;;;;;25.40;30.20;;;24.44;31.71;101949.28;12250559;19;19928;-84
2023/05/27 16:57:13;;;;;;;;;;;25.30;30.90;;;24.57;31.54;101967.63;12247645;19;19918;-84
2023/05/27 17:01:14;;;;;;;;;;;25.30;31.10;;;24.50;31.66;101964.69;12247820;19;19907;-84
2023/05/27 17:05:16;;;;;;;;;;;25.30;30.40;;;24.40;31.24;101961.19;12247899;19;19915;-84
2023/05/27 17:09:17;;;;;;;;;;;25.20;30.00;;;24.37;31.54;101954.31;12249556;19;19930;-84
2023/05/27 17:13:18;;;;;;;;;;;25.20;30.30;;;24.31;31.68;101954.06;12253678;19;19970;-83
2023/05/27 17:17:20;;;;;;;;;;;25.10;30.40;;;24.25;31.21;101952.81;12258966;19;19918;-83
2023/05/27 17:21:21;;;;;;;;;;;25.10;31.00;;;24.21;31.31;101949.56;12264277;19;19913;-84
2023/05/27 17:25:22;;;;;;;;;;;25.00;30.50;;;24.16;31.54;101951.81;12257525;19;19961;-83
2023/05/27 17:29:24;;;;;;;;;;;25.00;30.90;;;23.82;31.68;101904.28;12262476;19;19911;-83
2023/05/27 17:33:25;;;;;;;;;;;24.90;30.90;;;24.01;31.39;101934.59;12260561;19;19947;-84
2023/05/27 17:37:27;;;;;;;;;;;24.90;31.30;;;24.03;31.72;101946.81;12259769;19;19918;-84
2023/05/27 17:41:28;;;;;;;;;;;24.80;31.10;;;23.98;31.30;101943.72;12262362;19;19927;-84
2023/05/27 17:45:29;;;;;;;;;;;24.70;31.30;;;23.89;31.45;101938.38;12260410;19;19915;-84
2023/05/27 17:49:31;;;;;;;;;;;24.70;30.90;;;23.80;31.40;101943.59;12262522;19;20268;-84
2023/05/27 17:53:35;;;;;;;;;;;24.60;30.80;;;23.68;31.25;101935.81;12261845;19;19919;-84
2023/05/27 17:57:36;;;;;;;;;;;24.50;31.00;;;23.62;31.49;101947.91;12260816;19;20245;-83
2023/05/27 18:01:38;;;;;;;;;;;24.40;31.30;;;23.60;31.27;101944.53;12256523;19;19938;-84
2023/05/27 18:05:39;;;;;;;;;;;24.30;31.40;;;23.48;31.69;101927.81;12256850;19;19939;-84
2023/05/27 18:09:41;;;;;;;;;;;24.30;31.60;;;23.41;31.68;101922.22;12258989;19;20273;-83
2023/05/27 18:13:42;;;;;;;;;;;24.20;31.80;;;23.38;31.33;101926.97;12257549;19;19915;-84
2023/05/27 18:17:44;;;;;;;;;;;24.20;31.60;;;23.43;31.75;101948.72;12258373;19;20310;-83